sensor_id;sensor_type;location;lat;lon;timestamp;P1;durP1;ratioP1;P2;durP2;ratioP2
68126;SDS011;54931;52.098;21.006;2024-01-10T00:00:37;256.50;;;74.60;;
68126;SDS011;54931;52.098;21.006;2024-01-10T00:03:42;235.80;;;67.00;;
68126;SDS011;54931;52.098;21.006;2024-01-10T00:06:29;239.50;;;69.10;;
68126;SDS011;54931;52.098;21.006;2024-01-10T00:09:17;217.30;;;59.00;;
68126;SDS011;54931;52.098;21.006;2024-01-10T00:14:52;162.30;;;43.60;;
68126;SDS011;54931;52.098;21.006;2024-01-10T00:17:40;174.40;;;47.20;;
68126;SDS011;54931;52.098;21.006;2024-01-10T00:20:27;156.60;;;43.50;;
68126;SDS011;54931;52.098;21.006;2024-01-10T00:23:15;176.80;;;51.40;;
68126;SDS011;54931;52.098;21.006;2024-01-10T00:28:49;167.90;;;46.80;;
68126;SDS011;54931;52.098;21.006;2024-01-10T00:31:37;185.40;;;52.70;;
68126;SDS011;54931;52.098;21.006;2024-01-10T00:37:12;139.70;;;39.80;;
68126;SDS011;54931;52.098;21.006;2024-01-10T00:39:59;156.30;;;45.10;;
68126;SDS011;54931;52.098;21.006;2024-01-10T00:42:47;170.50;;;46.40;;
68126;SDS011;54931;52.098;21.006;2024-01-10T00:45:34;124.70;;;36.20;;
68126;SDS011;54931;52.098;21.006;2024-01-10T00:48:22;121.30;;;36.30;;
68126;SDS011;54931;52.098;21.006;2024-01-10T00:53:57;165.60;;;40.10;;
68126;SDS011;54931;52.098;21.006;2024-01-10T00:56:44;134.30;;;38.50;;
68126;SDS011;54931;52.098;21.006;2024-01-10T00:59:32;164.30;;;49.20;;
68126;SDS011;54931;52.098;21.006;2024-01-10T01:02:19;177.90;;;53.80;;
68126;SDS011;54931;52.098;21.006;2024-01-10T01:05:07;190.40;;;50.00;;
68126;SDS011;54931;52.098;21.006;2024-01-10T01:07:54;207.80;;;57.10;;
68126;SDS011;54931;52.098;21.006;2024-01-10T01:10:41;190.70;;;59.10;;
68126;SDS011;54931;52.098;21.006;2024-01-10T01:13:29;323.60;;;82.30;;
68126;SDS011;54931;52.098;21.006;2024-01-10T01:16:16;218.00;;;60.00;;
68126;SDS011;54931;52.098;21.006;2024-01-10T01:19:04;172.00;;;46.80;;
68126;SDS011;54931;52.098;21.006;2024-01-10T01:24:38;220.90;;;55.20;;
68126;SDS011;54931;52.098;21.006;2024-01-10T01:27:25;140.50;;;38.40;;
68126;SDS011;54931;52.098;21.006;2024-01-10T01:30:13;188.10;;;53.10;;
68126;SDS011;54931;52.098;21.006;2024-01-10T01:33:00;149.40;;;42.80;;
68126;SDS011;54931;52.098;21.006;2024-01-10T01:35:49;141.10;;;39.30;;
68126;SDS011;54931;52.098;21.006;2024-01-10T01:38:37;148.30;;;42.50;;
68126;SDS011;54931;52.098;21.006;2024-01-10T01:41:24;142.60;;;42.60;;
68126;SDS011;54931;52.098;21.006;2024-01-10T01:44:11;152.60;;;42.70;;
68126;SDS011;54931;52.098;21.006;2024-01-10T01:49:47;87.30;;;26.70;;
68126;SDS011;54931;52.098;21.006;2024-01-10T01:52:34;117.70;;;34.70;;
68126;SDS011;54931;52.098;21.006;2024-01-10T01:55:22;166.60;;;45.50;;
68126;SDS011;54931;52.098;21.006;2024-01-10T01:58:12;144.00;;;42.20;;
68126;SDS011;54931;52.098;21.006;2024-01-10T02:01:00;165.30;;;47.00;;
68126;SDS011;54931;52.098;21.006;2024-01-10T02:03:49;172.40;;;50.40;;
68126;SDS011;54931;52.098;21.006;2024-01-10T02:06:37;148.50;;;41.50;;
68126;SDS011;54931;52.098;21.006;2024-01-10T02:09:25;178.60;;;47.20;;
68126;SDS011;54931;52.098;21.006;2024-01-10T02:12:13;173.90;;;49.70;;
68126;SDS011;54931;52.098;21.006;2024-01-10T02:15:01;189.00;;;51.20;;
68126;SDS011;54931;52.098;21.006;2024-01-10T02:17:50;189.70;;;52.90;;
68126;SDS011;54931;52.098;21.006;2024-01-10T02:20:38;185.20;;;55.90;;
68126;SDS011;54931;52.098;21.006;2024-01-10T02:23:26;216.50;;;58.60;;
68126;SDS011;54931;52.098;21.006;2024-01-10T02:26:15;206.40;;;52.70;;
68126;SDS011;54931;52.098;21.006;2024-01-10T02:29:03;205.00;;;55.80;;
68126;SDS011;54931;52.098;21.006;2024-01-10T02:31:51;206.80;;;56.10;;
68126;SDS011;54931;52.098;21.006;2024-01-10T02:34:39;210.40;;;58.30;;
68126;SDS011;54931;52.098;21.006;2024-01-10T02:37:27;217.90;;;67.30;;
68126;SDS011;54931;52.098;21.006;2024-01-10T02:40:14;213.70;;;61.00;;
68126;SDS011;54931;52.098;21.006;2024-01-10T02:43:03;240.50;;;66.90;;
68126;SDS011;54931;52.098;21.006;2024-01-10T02:45:51;240.10;;;72.00;;
68126;SDS011;54931;52.098;21.006;2024-01-10T02:48:39;248.60;;;75.90;;
68126;SDS011;54931;52.098;21.006;2024-01-10T02:51:27;248.00;;;66.20;;
68126;SDS011;54931;52.098;21.006;2024-01-10T02:54:15;213.20;;;58.80;;
68126;SDS011;54931;52.098;21.006;2024-01-10T02:57:03;214.50;;;60.50;;
68126;SDS011;54931;52.098;21.006;2024-01-10T02:59:51;199.00;;;54.80;;
68126;SDS011;54931;52.098;21.006;2024-01-10T03:02:39;177.70;;;56.40;;
68126;SDS011;54931;52.098;21.006;2024-01-10T03:05:26;183.80;;;52.60;;
68126;SDS011;54931;52.098;21.006;2024-01-10T03:08:14;175.20;;;51.00;;
68126;SDS011;54931;52.098;21.006;2024-01-10T03:11:02;166.00;;;49.90;;
68126;SDS011;54931;52.098;21.006;2024-01-10T03:13:53;160.20;;;50.20;;
68126;SDS011;54931;52.098;21.006;2024-01-10T03:16:49;133.70;;;39.30;;
68126;SDS011;54931;52.098;21.006;2024-01-10T03:19:36;147.70;;;43.10;;
68126;SDS011;54931;52.098;21.006;2024-01-10T03:22:31;143.40;;;41.60;;
68126;SDS011;54931;52.098;21.006;2024-01-10T03:25:19;109.30;;;34.10;;
68126;SDS011;54931;52.098;21.006;2024-01-10T03:28:06;126.40;;;40.30;;
68126;SDS011;54931;52.098;21.006;2024-01-10T03:30:54;132.80;;;38.60;;
68126;SDS011;54931;52.098;21.006;2024-01-10T03:33:41;144.00;;;42.30;;
68126;SDS011;54931;52.098;21.006;2024-01-10T03:39:16;122.70;;;45.70;;
68126;SDS011;54931;52.098;21.006;2024-01-10T03:42:03;131.30;;;42.10;;
68126;SDS011;54931;52.098;21.006;2024-01-10T03:44:51;153.40;;;51.90;;
68126;SDS011;54931;52.098;21.006;2024-01-10T03:50:25;200.50;;;56.40;;
68126;SDS011;54931;52.098;21.006;2024-01-10T03:53:13;205.10;;;57.90;;
68126;SDS011;54931;52.098;21.006;2024-01-10T03:56:04;164.30;;;53.10;;
68126;SDS011;54931;52.098;21.006;2024-01-10T03:58:52;223.50;;;68.80;;
68126;SDS011;54931;52.098;21.006;2024-01-10T04:01:39;185.60;;;62.20;;
68126;SDS011;54931;52.098;21.006;2024-01-10T04:04:26;215.20;;;62.60;;
68126;SDS011;54931;52.098;21.006;2024-01-10T04:07:14;211.40;;;63.00;;
68126;SDS011;54931;52.098;21.006;2024-01-10T04:12:49;189.60;;;57.40;;
68126;SDS011;54931;52.098;21.006;2024-01-10T04:15:37;149.10;;;49.10;;
68126;SDS011;54931;52.098;21.006;2024-01-10T04:21:12;190.60;;;54.70;;
68126;SDS011;54931;52.098;21.006;2024-01-10T04:23:59;158.80;;;47.70;;
68126;SDS011;54931;52.098;21.006;2024-01-10T04:26:47;164.50;;;48.50;;
68126;SDS011;54931;52.098;21.006;2024-01-10T04:29:34;94.30;;;30.80;;
68126;SDS011;54931;52.098;21.006;2024-01-10T04:32:21;158.40;;;48.20;;
68126;SDS011;54931;52.098;21.006;2024-01-10T04:35:09;136.40;;;39.50;;
68126;SDS011;54931;52.098;21.006;2024-01-10T04:37:57;118.40;;;36.40;;
68126;SDS011;54931;52.098;21.006;2024-01-10T04:40:45;112.00;;;35.00;;
68126;SDS011;54931;52.098;21.006;2024-01-10T04:46:20;95.50;;;30.80;;
68126;SDS011;54931;52.098;21.006;2024-01-10T04:49:07;118.50;;;38.70;;
68126;SDS011;54931;52.098;21.006;2024-01-10T04:51:55;125.20;;;39.30;;
68126;SDS011;54931;52.098;21.006;2024-01-10T04:54:42;122.60;;;35.90;;
68126;SDS011;54931;52.098;21.006;2024-01-10T04:57:30;131.20;;;40.80;;
68126;SDS011;54931;52.098;21.006;2024-01-10T05:00:18;140.50;;;47.00;;
68126;SDS011;54931;52.098;21.006;2024-01-10T05:03:05;142.00;;;39.90;;
68126;SDS011;54931;52.098;21.006;2024-01-10T05:05:53;119.90;;;40.10;;
68126;SDS011;54931;52.098;21.006;2024-01-10T05:08:40;110.60;;;33.30;;
68126;SDS011;54931;52.098;21.006;2024-01-10T05:11:28;105.40;;;34.50;;
68126;SDS011;54931;52.098;21.006;2024-01-10T05:14:16;126.70;;;36.00;;
68126;SDS011;54931;52.098;21.006;2024-01-10T05:17:03;148.40;;;41.90;;
68126;SDS011;54931;52.098;21.006;2024-01-10T05:19:51;92.40;;;29.30;;
68126;SDS011;54931;52.098;21.006;2024-01-10T05:22:40;121.90;;;36.90;;
68126;SDS011;54931;52.098;21.006;2024-01-10T05:25:28;139.00;;;43.00;;
68126;SDS011;54931;52.098;21.006;2024-01-10T05:28:16;120.70;;;36.40;;
68126;SDS011;54931;52.098;21.006;2024-01-10T05:31:04;127.30;;;37.30;;
68126;SDS011;54931;52.098;21.006;2024-01-10T05:33:52;137.20;;;40.90;;
68126;SDS011;54931;52.098;21.006;2024-01-10T05:36:40;125.50;;;44.60;;
68126;SDS011;54931;52.098;21.006;2024-01-10T05:39:27;146.20;;;43.80;;
68126;SDS011;54931;52.098;21.006;2024-01-10T05:42:15;115.60;;;37.60;;
68126;SDS011;54931;52.098;21.006;2024-01-10T05:45:02;127.50;;;40.80;;
68126;SDS011;54931;52.098;21.006;2024-01-10T05:47:51;117.30;;;35.30;;
68126;SDS011;54931;52.098;21.006;2024-01-10T05:50:39;120.80;;;39.50;;
68126;SDS011;54931;52.098;21.006;2024-01-10T05:53:27;141.90;;;44.10;;
68126;SDS011;54931;52.098;21.006;2024-01-10T05:56:15;128.70;;;40.50;;
68126;SDS011;54931;52.098;21.006;2024-01-10T05:59:02;131.30;;;44.70;;
68126;SDS011;54931;52.098;21.006;2024-01-10T06:04:36;101.50;;;34.10;;
68126;SDS011;54931;52.098;21.006;2024-01-10T06:10:11;121.20;;;36.40;;
68126;SDS011;54931;52.098;21.006;2024-01-10T06:12:58;134.90;;;40.80;;
68126;SDS011;54931;52.098;21.006;2024-01-10T06:18:33;121.90;;;38.10;;
68126;SDS011;54931;52.098;21.006;2024-01-10T06:21:21;133.60;;;43.30;;
68126;SDS011;54931;52.098;21.006;2024-01-10T06:26:56;120.10;;;37.10;;
68126;SDS011;54931;52.098;21.006;2024-01-10T06:29:44;143.00;;;44.90;;
68126;SDS011;54931;52.098;21.006;2024-01-10T06:32:32;138.00;;;44.40;;
68126;SDS011;54931;52.098;21.006;2024-01-10T06:35:19;146.20;;;49.40;;
68126;SDS011;54931;52.098;21.006;2024-01-10T06:38:07;144.60;;;46.30;;
68126;SDS011;54931;52.098;21.006;2024-01-10T06:40:54;143.50;;;49.90;;
68126;SDS011;54931;52.098;21.006;2024-01-10T06:43:42;153.30;;;50.50;;
68126;SDS011;54931;52.098;21.006;2024-01-10T06:46:31;140.20;;;47.10;;
68126;SDS011;54931;52.098;21.006;2024-01-10T06:49:19;128.20;;;45.20;;
68126;SDS011;54931;52.098;21.006;2024-01-10T06:52:06;130.30;;;42.70;;
68126;SDS011;54931;52.098;21.006;2024-01-10T06:54:54;141.00;;;44.00;;
68126;SDS011;54931;52.098;21.006;2024-01-10T06:57:42;127.50;;;42.70;;
68126;SDS011;54931;52.098;21.006;2024-01-10T07:00:30;138.70;;;44.50;;
68126;SDS011;54931;52.098;21.006;2024-01-10T07:03:18;135.70;;;45.20;;
68126;SDS011;54931;52.098;21.006;2024-01-10T07:08:53;138.40;;;46.60;;
68126;SDS011;54931;52.098;21.006;2024-01-10T07:11:40;138.60;;;44.40;;
68126;SDS011;54931;52.098;21.006;2024-01-10T07:14:28;123.00;;;40.60;;
68126;SDS011;54931;52.098;21.006;2024-01-10T07:20:03;169.60;;;53.90;;
68126;SDS011;54931;52.098;21.006;2024-01-10T07:22:52;283.80;;;81.30;;
68126;SDS011;54931;52.098;21.006;2024-01-10T07:28:27;137.60;;;45.70;;
68126;SDS011;54931;52.098;21.006;2024-01-10T07:31:15;164.00;;;47.60;;
68126;SDS011;54931;52.098;21.006;2024-01-10T07:34:03;123.70;;;41.50;;
68126;SDS011;54931;52.098;21.006;2024-01-10T07:36:53;147.50;;;44.70;;
68126;SDS011;54931;52.098;21.006;2024-01-10T07:39:41;149.80;;;50.80;;
68126;SDS011;54931;52.098;21.006;2024-01-10T07:42:28;114.90;;;34.70;;
68126;SDS011;54931;52.098;21.006;2024-01-10T07:45:16;133.00;;;49.30;;
68126;SDS011;54931;52.098;21.006;2024-01-10T07:48:04;103.40;;;32.80;;
68126;SDS011;54931;52.098;21.006;2024-01-10T07:50:51;116.40;;;36.20;;
68126;SDS011;54931;52.098;21.006;2024-01-10T07:56:26;123.00;;;39.40;;
68126;SDS011;54931;52.098;21.006;2024-01-10T08:02:03;113.80;;;38.50;;
68126;SDS011;54931;52.098;21.006;2024-01-10T08:04:52;103.90;;;36.20;;
68126;SDS011;54931;52.098;21.006;2024-01-10T08:07:40;105.00;;;36.70;;
68126;SDS011;54931;52.098;21.006;2024-01-10T08:13:15;119.30;;;40.20;;
68126;SDS011;54931;52.098;21.006;2024-01-10T08:16:03;133.70;;;38.80;;
68126;SDS011;54931;52.098;21.006;2024-01-10T08:18:51;156.60;;;45.20;;
68126;SDS011;54931;52.098;21.006;2024-01-10T08:21:38;106.20;;;34.50;;
68126;SDS011;54931;52.098;21.006;2024-01-10T08:24:26;97.60;;;34.60;;
68126;SDS011;54931;52.098;21.006;2024-01-10T08:27:13;92.50;;;36.10;;
68126;SDS011;54931;52.098;21.006;2024-01-10T08:30:01;132.30;;;42.50;;
68126;SDS011;54931;52.098;21.006;2024-01-10T08:32:52;120.70;;;40.70;;
68126;SDS011;54931;52.098;21.006;2024-01-10T08:35:39;111.30;;;37.80;;
68126;SDS011;54931;52.098;21.006;2024-01-10T08:38:27;101.70;;;34.50;;
68126;SDS011;54931;52.098;21.006;2024-01-10T08:41:14;118.50;;;36.90;;
68126;SDS011;54931;52.098;21.006;2024-01-10T08:46:49;109.10;;;36.00;;
68126;SDS011;54931;52.098;21.006;2024-01-10T08:49:40;83.30;;;31.80;;
68126;SDS011;54931;52.098;21.006;2024-01-10T08:52:27;97.60;;;34.00;;
68126;SDS011;54931;52.098;21.006;2024-01-10T08:58:03;88.10;;;30.20;;
68126;SDS011;54931;52.098;21.006;2024-01-10T09:00:50;86.80;;;30.90;;
68126;SDS011;54931;52.098;21.006;2024-01-10T09:06:25;94.30;;;33.70;;
68126;SDS011;54931;52.098;21.006;2024-01-10T09:09:13;95.90;;;31.40;;
68126;SDS011;54931;52.098;21.006;2024-01-10T09:12:01;87.70;;;32.90;;
68126;SDS011;54931;52.098;21.006;2024-01-10T09:17:36;79.00;;;27.00;;
68126;SDS011;54931;52.098;21.006;2024-01-10T09:20:24;78.90;;;29.80;;
68126;SDS011;54931;52.098;21.006;2024-01-10T09:25:59;71.10;;;27.10;;
68126;SDS011;54931;52.098;21.006;2024-01-10T09:28:47;97.80;;;34.00;;
68126;SDS011;54931;52.098;21.006;2024-01-10T09:31:35;72.70;;;28.50;;
68126;SDS011;54931;52.098;21.006;2024-01-10T09:34:22;94.70;;;32.10;;
68126;SDS011;54931;52.098;21.006;2024-01-10T09:37:10;90.40;;;33.60;;
68126;SDS011;54931;52.098;21.006;2024-01-10T09:42:50;101.90;;;33.10;;
68126;SDS011;54931;52.098;21.006;2024-01-10T09:45:43;90.90;;;30.70;;
68126;SDS011;54931;52.098;21.006;2024-01-10T09:48:35;84.60;;;29.60;;
68126;SDS011;54931;52.098;21.006;2024-01-10T09:51:23;69.30;;;27.00;;
68126;SDS011;54931;52.098;21.006;2024-01-10T09:54:10;76.90;;;28.60;;
68126;SDS011;54931;52.098;21.006;2024-01-10T09:56:58;76.40;;;29.50;;
68126;SDS011;54931;52.098;21.006;2024-01-10T09:59:47;68.50;;;23.70;;
68126;SDS011;54931;52.098;21.006;2024-01-10T10:02:34;78.20;;;30.00;;
68126;SDS011;54931;52.098;21.006;2024-01-10T10:05:23;82.30;;;31.30;;
68126;SDS011;54931;52.098;21.006;2024-01-10T10:08:12;81.40;;;30.40;;
68126;SDS011;54931;52.098;21.006;2024-01-10T10:11:13;80.90;;;31.60;;
68126;SDS011;54931;52.098;21.006;2024-01-10T10:14:19;75.40;;;31.40;;
68126;SDS011;54931;52.098;21.006;2024-01-10T10:17:17;77.50;;;30.30;;
68126;SDS011;54931;52.098;21.006;2024-01-10T10:20:05;74.10;;;30.70;;
68126;SDS011;54931;52.098;21.006;2024-01-10T10:23:01;76.80;;;28.10;;
68126;SDS011;54931;52.098;21.006;2024-01-10T10:25:53;77.70;;;29.20;;
68126;SDS011;54931;52.098;21.006;2024-01-10T10:28:41;82.20;;;30.00;;
68126;SDS011;54931;52.098;21.006;2024-01-10T10:34:21;74.50;;;29.90;;
68126;SDS011;54931;52.098;21.006;2024-01-10T10:37:11;64.30;;;25.60;;
68126;SDS011;54931;52.098;21.006;2024-01-10T10:39:59;84.60;;;31.30;;
68126;SDS011;54931;52.098;21.006;2024-01-10T10:42:54;87.50;;;32.40;;
68126;SDS011;54931;52.098;21.006;2024-01-10T10:45:50;82.60;;;32.90;;
68126;SDS011;54931;52.098;21.006;2024-01-10T10:48:38;76.30;;;29.90;;
68126;SDS011;54931;52.098;21.006;2024-01-10T10:54:26;84.10;;;31.50;;
68126;SDS011;54931;52.098;21.006;2024-01-10T10:57:17;79.70;;;32.00;;
68126;SDS011;54931;52.098;21.006;2024-01-10T11:00:08;81.60;;;31.60;;
68126;SDS011;54931;52.098;21.006;2024-01-10T11:02:57;91.40;;;34.80;;
68126;SDS011;54931;52.098;21.006;2024-01-10T11:05:46;101.20;;;32.00;;
68126;SDS011;54931;52.098;21.006;2024-01-10T11:08:36;124.60;;;38.00;;
68126;SDS011;54931;52.098;21.006;2024-01-10T11:12:14;88.80;;;32.60;;
68126;SDS011;54931;52.098;21.006;2024-01-10T11:22:54;73.10;;;27.80;;
68126;SDS011;54931;52.098;21.006;2024-01-10T11:26:04;70.70;;;27.90;;
68126;SDS011;54931;52.098;21.006;2024-01-10T11:28:52;85.10;;;30.90;;
68126;SDS011;54931;52.098;21.006;2024-01-10T11:31:40;74.70;;;28.70;;
68126;SDS011;54931;52.098;21.006;2024-01-10T11:34:29;98.70;;;36.50;;
68126;SDS011;54931;52.098;21.006;2024-01-10T11:37:16;85.40;;;30.50;;
68126;SDS011;54931;52.098;21.006;2024-01-10T11:40:07;84.40;;;32.20;;
68126;SDS011;54931;52.098;21.006;2024-01-10T11:42:58;84.70;;;33.60;;
68126;SDS011;54931;52.098;21.006;2024-01-10T11:48:42;74.90;;;27.10;;
68126;SDS011;54931;52.098;21.006;2024-01-10T11:54:43;86.90;;;31.00;;
68126;SDS011;54931;52.098;21.006;2024-01-10T11:57:32;83.00;;;33.30;;
68126;SDS011;54931;52.098;21.006;2024-01-10T12:03:07;83.00;;;30.60;;
68126;SDS011;54931;52.098;21.006;2024-01-10T12:05:57;83.90;;;32.80;;
68126;SDS011;54931;52.098;21.006;2024-01-10T12:08:47;89.70;;;33.70;;
68126;SDS011;54931;52.098;21.006;2024-01-10T12:11:36;83.10;;;31.10;;
68126;SDS011;54931;52.098;21.006;2024-01-10T12:14:23;84.90;;;32.60;;
68126;SDS011;54931;52.098;21.006;2024-01-10T12:17:12;82.90;;;29.80;;
68126;SDS011;54931;52.098;21.006;2024-01-10T12:19:59;77.00;;;27.40;;
68126;SDS011;54931;52.098;21.006;2024-01-10T12:22:48;85.60;;;31.30;;
68126;SDS011;54931;52.098;21.006;2024-01-10T12:25:36;90.10;;;35.40;;
68126;SDS011;54931;52.098;21.006;2024-01-10T12:28:23;88.40;;;32.80;;
68126;SDS011;54931;52.098;21.006;2024-01-10T12:31:11;88.10;;;33.30;;
68126;SDS011;54931;52.098;21.006;2024-01-10T12:34:00;82.50;;;30.60;;
68126;SDS011;54931;52.098;21.006;2024-01-10T12:36:47;78.70;;;31.90;;
68126;SDS011;54931;52.098;21.006;2024-01-10T12:39:37;81.80;;;31.40;;
68126;SDS011;54931;52.098;21.006;2024-01-10T12:42:25;67.20;;;27.10;;
68126;SDS011;54931;52.098;21.006;2024-01-10T12:45:31;72.50;;;29.10;;
68126;SDS011;54931;52.098;21.006;2024-01-10T12:48:19;86.20;;;31.70;;
68126;SDS011;54931;52.098;21.006;2024-01-10T12:51:11;90.60;;;33.70;;
68126;SDS011;54931;52.098;21.006;2024-01-10T12:54:00;87.30;;;32.00;;
68126;SDS011;54931;52.098;21.006;2024-01-10T12:56:47;100.30;;;34.40;;
68126;SDS011;54931;52.098;21.006;2024-01-10T12:59:35;99.10;;;32.70;;
68126;SDS011;54931;52.098;21.006;2024-01-10T13:02:22;96.90;;;34.00;;
68126;SDS011;54931;52.098;21.006;2024-01-10T13:05:10;119.00;;;37.60;;
68126;SDS011;54931;52.098;21.006;2024-01-10T13:10:45;85.80;;;30.60;;
68126;SDS011;54931;52.098;21.006;2024-01-10T13:13:35;104.40;;;36.10;;
68126;SDS011;54931;52.098;21.006;2024-01-10T13:16:23;100.60;;;34.80;;
68126;SDS011;54931;52.098;21.006;2024-01-10T13:19:11;113.10;;;36.80;;
68126;SDS011;54931;52.098;21.006;2024-01-10T13:21:58;92.30;;;31.40;;
68126;SDS011;54931;52.098;21.006;2024-01-10T13:24:46;92.90;;;33.90;;
68126;SDS011;54931;52.098;21.006;2024-01-10T13:27:34;107.10;;;35.50;;
68126;SDS011;54931;52.098;21.006;2024-01-10T13:33:09;100.60;;;32.30;;
68126;SDS011;54931;52.098;21.006;2024-01-10T13:35:57;75.60;;;27.00;;
68126;SDS011;54931;52.098;21.006;2024-01-10T13:38:45;87.30;;;32.10;;
68126;SDS011;54931;52.098;21.006;2024-01-10T13:44:20;97.20;;;35.20;;
68126;SDS011;54931;52.098;21.006;2024-01-10T13:49:55;101.30;;;33.10;;
68126;SDS011;54931;52.098;21.006;2024-01-10T13:52:42;92.00;;;33.70;;
68126;SDS011;54931;52.098;21.006;2024-01-10T13:55:31;93.30;;;31.40;;
68126;SDS011;54931;52.098;21.006;2024-01-10T13:58:19;88.80;;;32.40;;
68126;SDS011;54931;52.098;21.006;2024-01-10T14:01:07;93.70;;;32.60;;
68126;SDS011;54931;52.098;21.006;2024-01-10T14:06:41;83.90;;;29.30;;
68126;SDS011;54931;52.098;21.006;2024-01-10T14:09:30;104.60;;;37.30;;
68126;SDS011;54931;52.098;21.006;2024-01-10T14:12:18;115.00;;;37.60;;
68126;SDS011;54931;52.098;21.006;2024-01-10T14:15:05;104.20;;;35.20;;
68126;SDS011;54931;52.098;21.006;2024-01-10T14:17:53;133.40;;;35.90;;
68126;SDS011;54931;52.098;21.006;2024-01-10T14:20:40;180.50;;;47.10;;
68126;SDS011;54931;52.098;21.006;2024-01-10T14:26:15;87.40;;;27.50;;
68126;SDS011;54931;52.098;21.006;2024-01-10T14:29:04;106.30;;;32.10;;
68126;SDS011;54931;52.098;21.006;2024-01-10T14:31:51;128.20;;;36.20;;
68126;SDS011;54931;52.098;21.006;2024-01-10T14:34:40;134.20;;;37.70;;
68126;SDS011;54931;52.098;21.006;2024-01-10T14:37:28;91.50;;;29.50;;
68126;SDS011;54931;52.098;21.006;2024-01-10T14:40:16;94.70;;;31.90;;
68126;SDS011;54931;52.098;21.006;2024-01-10T14:45:51;99.30;;;29.20;;
68126;SDS011;54931;52.098;21.006;2024-01-10T14:48:38;108.80;;;30.70;;
68126;SDS011;54931;52.098;21.006;2024-01-10T14:51:26;103.80;;;34.90;;
68126;SDS011;54931;52.098;21.006;2024-01-10T14:54:13;104.60;;;34.90;;
68126;SDS011;54931;52.098;21.006;2024-01-10T14:57:01;103.50;;;35.00;;
68126;SDS011;54931;52.098;21.006;2024-01-10T14:59:48;85.80;;;28.90;;
68126;SDS011;54931;52.098;21.006;2024-01-10T15:02:36;91.90;;;29.80;;
68126;SDS011;54931;52.098;21.006;2024-01-10T15:05:24;103.30;;;32.90;;
68126;SDS011;54931;52.098;21.006;2024-01-10T15:08:12;96.90;;;34.30;;
68126;SDS011;54931;52.098;21.006;2024-01-10T15:11:00;96.90;;;34.00;;
68126;SDS011;54931;52.098;21.006;2024-01-10T15:13:48;106.50;;;36.30;;
68126;SDS011;54931;52.098;21.006;2024-01-10T15:19:23;94.50;;;30.30;;
68126;SDS011;54931;52.098;21.006;2024-01-10T15:24:58;100.90;;;32.50;;
68126;SDS011;54931;52.098;21.006;2024-01-10T15:27:46;103.10;;;31.50;;
68126;SDS011;54931;52.098;21.006;2024-01-10T15:30:35;114.20;;;39.10;;
68126;SDS011;54931;52.098;21.006;2024-01-10T15:36:09;84.30;;;28.50;;
68126;SDS011;54931;52.098;21.006;2024-01-10T15:38:57;91.60;;;29.50;;
68126;SDS011;54931;52.098;21.006;2024-01-10T15:41:47;87.40;;;30.50;;
68126;SDS011;54931;52.098;21.006;2024-01-10T15:44:39;98.20;;;32.50;;
68126;SDS011;54931;52.098;21.006;2024-01-10T15:47:27;96.10;;;33.10;;
68126;SDS011;54931;52.098;21.006;2024-01-10T15:50:15;89.00;;;29.70;;
68126;SDS011;54931;52.098;21.006;2024-01-10T15:53:03;93.70;;;32.70;;
68126;SDS011;54931;52.098;21.006;2024-01-10T15:55:50;98.30;;;32.80;;
68126;SDS011;54931;52.098;21.006;2024-01-10T15:58:38;85.50;;;27.70;;
68126;SDS011;54931;52.098;21.006;2024-01-10T16:04:12;97.60;;;32.50;;
68126;SDS011;54931;52.098;21.006;2024-01-10T16:07:01;103.30;;;31.60;;
68126;SDS011;54931;52.098;21.006;2024-01-10T16:12:35;95.50;;;32.00;;
68126;SDS011;54931;52.098;21.006;2024-01-10T16:15:23;132.30;;;43.10;;
68126;SDS011;54931;52.098;21.006;2024-01-10T16:18:11;126.20;;;38.70;;
68126;SDS011;54931;52.098;21.006;2024-01-10T16:20:59;137.00;;;38.80;;
68126;SDS011;54931;52.098;21.006;2024-01-10T16:23:46;135.40;;;37.60;;
68126;SDS011;54931;52.098;21.006;2024-01-10T16:26:34;96.10;;;33.70;;
68126;SDS011;54931;52.098;21.006;2024-01-10T16:29:23;91.70;;;32.50;;
68126;SDS011;54931;52.098;21.006;2024-01-10T16:32:10;361.30;;;91.90;;
68126;SDS011;54931;52.098;21.006;2024-01-10T16:34:58;232.90;;;60.60;;
68126;SDS011;54931;52.098;21.006;2024-01-10T16:37:45;159.30;;;54.60;;
68126;SDS011;54931;52.098;21.006;2024-01-10T16:40:33;120.10;;;40.70;;
68126;SDS011;54931;52.098;21.006;2024-01-10T16:43:21;156.60;;;47.00;;
68126;SDS011;54931;52.098;21.006;2024-01-10T16:46:09;173.70;;;44.50;;
68126;SDS011;54931;52.098;21.006;2024-01-10T16:48:56;126.50;;;42.50;;
68126;SDS011;54931;52.098;21.006;2024-01-10T16:51:44;176.70;;;45.30;;
68126;SDS011;54931;52.098;21.006;2024-01-10T16:54:31;191.40;;;49.30;;
68126;SDS011;54931;52.098;21.006;2024-01-10T16:57:18;184.00;;;47.40;;
68126;SDS011;54931;52.098;21.006;2024-01-10T17:00:07;104.30;;;32.10;;
68126;SDS011;54931;52.098;21.006;2024-01-10T17:02:55;97.40;;;32.60;;
68126;SDS011;54931;52.098;21.006;2024-01-10T17:05:45;90.00;;;30.00;;
68126;SDS011;54931;52.098;21.006;2024-01-10T17:08:33;286.10;;;72.00;;
68126;SDS011;54931;52.098;21.006;2024-01-10T17:14:08;159.00;;;43.90;;
68126;SDS011;54931;52.098;21.006;2024-01-10T17:16:56;448.60;;;126.40;;
68126;SDS011;54931;52.098;21.006;2024-01-10T17:19:43;135.10;;;42.20;;
68126;SDS011;54931;52.098;21.006;2024-01-10T17:25:18;263.30;;;67.00;;
68126;SDS011;54931;52.098;21.006;2024-01-10T17:28:08;449.30;;;118.30;;
68126;SDS011;54931;52.098;21.006;2024-01-10T17:33:42;219.10;;;63.20;;
68126;SDS011;54931;52.098;21.006;2024-01-10T17:36:35;184.60;;;53.30;;
68126;SDS011;54931;52.098;21.006;2024-01-10T17:39:26;143.00;;;45.70;;
68126;SDS011;54931;52.098;21.006;2024-01-10T17:42:13;182.10;;;54.80;;
68126;SDS011;54931;52.098;21.006;2024-01-10T17:47:48;509.60;;;136.80;;
68126;SDS011;54931;52.098;21.006;2024-01-10T17:50:36;437.10;;;102.70;;
68126;SDS011;54931;52.098;21.006;2024-01-10T17:53:24;440.00;;;121.40;;
68126;SDS011;54931;52.098;21.006;2024-01-10T17:56:11;358.80;;;93.30;;
68126;SDS011;54931;52.098;21.006;2024-01-10T17:58:58;220.20;;;60.70;;
68126;SDS011;54931;52.098;21.006;2024-01-10T18:01:47;238.80;;;65.60;;
68126;SDS011;54931;52.098;21.006;2024-01-10T18:04:35;277.00;;;71.30;;
68126;SDS011;54931;52.098;21.006;2024-01-10T18:07:22;471.10;;;134.50;;
68126;SDS011;54931;52.098;21.006;2024-01-10T18:10:10;288.90;;;76.20;;
68126;SDS011;54931;52.098;21.006;2024-01-10T18:12:57;423.00;;;110.00;;
68126;SDS011;54931;52.098;21.006;2024-01-10T18:15:49;322.50;;;90.40;;
68126;SDS011;54931;52.098;21.006;2024-01-10T18:18:37;223.10;;;68.20;;
68126;SDS011;54931;52.098;21.006;2024-01-10T18:24:11;195.40;;;58.20;;
68126;SDS011;54931;52.098;21.006;2024-01-10T18:26:59;243.90;;;71.10;;